createdAt,value
2016-12-20T00:00:48.848Z,971.57
2016-12-20T00:01:48.808Z,971.58
2016-12-20T00:02:48.760Z,971.55
2016-12-20T00:03:48.714Z,971.54
2016-12-20T00:04:48.671Z,971.62
2016-12-20T00:05:48.627Z,971.55
2016-12-20T00:06:48.585Z,971.52
2016-12-20T00:07:48.539Z,971.52
2016-12-20T07:26:29.128Z,969.1
2016-12-20T07:27:29.084Z,969.11
2016-12-20T07:28:29.039Z,969.11
2016-12-20T07:29:28.994Z,969.18
2016-12-20T07:30:28.949Z,969.2
2016-12-20T07:31:28.905Z,969.19
2016-12-20T07:32:28.863Z,969.27
2016-12-20T07:33:28.818Z,969.3
2016-12-20T07:34:28.773Z,969.23
2016-12-20T07:35:28.729Z,969.24
2016-12-20T07:36:28.685Z,969.19
2016-12-20T07:37:28.640Z,969.24
2016-12-20T07:38:28.597Z,969.28
2016-12-20T07:39:28.552Z,969.28
2016-12-20T07:40:28.507Z,969.26
2016-12-20T07:41:28.463Z,969.24
2016-12-20T07:42:28.420Z,969.25
2016-12-20T07:43:28.376Z,969.29
2016-12-20T07:44:28.331Z,969.27
2016-12-20T07:45:28.287Z,969.2
2016-12-20T07:46:28.244Z,969.26
2016-12-20T07:47:28.200Z,969.32
2016-12-20T07:48:28.154Z,969.4
2016-12-20T07:49:28.112Z,969.5
2016-12-20T07:50:28.069Z,969.46
2016-12-20T07:51:28.022Z,969.36
2016-12-20T07:52:27.979Z,969.4
2016-12-20T07:53:27.937Z,969.49
2016-12-20T07:54:27.892Z,969.52
2016-12-20T07:55:27.848Z,969.48
2016-12-20T07:56:27.803Z,969.49
2016-12-20T07:57:27.766Z,969.53
2016-12-20T07:58:27.717Z,969.58
2016-12-20T07:59:27.672Z,969.56
2016-12-20T08:00:27.629Z,969.59
2016-12-20T08:01:27.587Z,969.58
2016-12-20T08:02:27.543Z,969.54
2016-12-20T08:03:27.499Z,969.53
2016-12-20T08:04:27.456Z,969.54
2016-12-20T08:05:27.414Z,969.61
2016-12-20T08:06:27.370Z,969.56
2016-12-20T08:07:27.325Z,969.51
2016-12-20T08:08:27.283Z,969.45
2016-12-20T08:09:27.238Z,969.39
2016-12-20T08:10:27.196Z,969.5
2016-12-20T08:11:27.163Z,969.53
2016-12-20T08:12:27.108Z,969.57
2016-12-20T08:13:27.064Z,969.55
2016-12-20T08:14:27.024Z,969.51
2016-12-20T08:15:26.979Z,969.52
2016-12-20T08:16:26.938Z,969.57
2016-12-20T08:17:26.893Z,969.61
2016-12-20T08:18:26.850Z,969.66
2016-12-20T08:19:26.809Z,969.67
2016-12-20T08:20:26.764Z,969.7
2016-12-20T08:21:26.722Z,969.71
2016-12-20T08:22:26.681Z,969.69
2016-12-20T08:23:26.636Z,969.66
2016-12-20T08:24:26.592Z,969.63
2016-12-20T08:25:26.551Z,969.64
2016-12-20T08:26:26.508Z,969.69
2016-12-20T08:27:26.463Z,969.67
2016-12-20T08:28:26.423Z,969.71
2016-12-20T08:29:26.380Z,969.65
2016-12-20T08:30:26.338Z,969.69
2016-12-20T08:31:26.294Z,969.75
2016-12-20T08:32:26.258Z,969.82
2016-12-20T08:33:26.211Z,969.8
2016-12-20T08:34:26.168Z,969.79
2016-12-20T08:35:26.125Z,969.78
2016-12-20T08:36:26.083Z,969.77
2016-12-20T08:37:26.042Z,969.74
2016-12-20T08:38:25.999Z,969.73
2016-12-20T08:39:25.958Z,969.74
2016-12-20T08:40:25.916Z,969.71
2016-12-20T08:41:25.874Z,969.79
2016-12-20T08:42:25.831Z,969.75
2016-12-20T08:43:25.789Z,969.73
2016-12-20T08:44:25.748Z,969.69
2016-12-20T08:45:25.706Z,969.73
2016-12-20T08:46:25.664Z,969.77
2016-12-20T08:47:25.621Z,969.74
2016-12-20T08:48:25.580Z,969.76
2016-12-20T08:49:25.539Z,969.72
2016-12-20T08:50:25.497Z,969.84
2016-12-20T08:51:25.457Z,969.9
2016-12-20T08:52:25.416Z,969.92
2016-12-20T08:53:25.374Z,969.91
2016-12-20T08:54:25.333Z,969.78
2016-12-20T08:55:25.294Z,969.8
2016-12-20T08:56:25.252Z,969.87
2016-12-20T08:57:25.212Z,969.86
2016-12-20T08:58:25.171Z,969.91
2016-12-20T08:59:25.132Z,969.92
2016-12-20T09:00:25.090Z,969.88
2016-12-20T09:01:25.052Z,969.77
2016-12-20T09:02:25.011Z,969.85
2016-12-20T09:03:24.971Z,969.88
2016-12-20T09:04:24.929Z,969.8
2016-12-20T09:05:24.891Z,969.9
2016-12-20T09:06:24.851Z,969.99
2016-12-20T09:07:24.813Z,969.94
2016-12-20T09:08:24.773Z,969.93
2016-12-20T09:09:24.742Z,969.96
2016-12-20T09:10:24.694Z,969.9
2016-12-20T09:11:24.653Z,969.93
2016-12-20T09:12:24.615Z,969.97
2016-12-20T09:13:24.576Z,970.04
2016-12-20T09:14:24.537Z,970.05
2016-12-20T09:15:24.498Z,969.98
2016-12-20T09:16:24.459Z,970.06
2016-12-20T09:17:24.422Z,969.98
2016-12-20T09:18:24.384Z,969.95
2016-12-20T09:19:24.345Z,969.94
2016-12-20T09:20:24.306Z,969.98
2016-12-20T09:21:24.270Z,969.95
2016-12-20T09:22:24.229Z,970
2016-12-20T09:23:24.190Z,970.06
2016-12-20T09:24:24.152Z,970.1
2016-12-20T09:25:24.114Z,970.1
2016-12-20T09:26:24.075Z,970.08
2016-12-20T09:27:24.038Z,970.05
2016-12-20T09:28:23.999Z,970.12
2016-12-20T09:29:23.960Z,970.13
2016-12-20T09:30:23.922Z,969.99
2016-12-20T09:31:23.885Z,969.97
2016-12-20T09:32:23.847Z,969.96
2016-12-20T09:33:23.807Z,969.95
2016-12-20T09:34:23.769Z,970.03
2016-12-20T09:35:23.730Z,970.04
2016-12-20T09:36:23.692Z,969.99
2016-12-20T09:37:23.653Z,969.95
2016-12-20T09:38:23.615Z,969.83
2016-12-20T09:39:23.576Z,969.88
2016-12-20T09:40:23.537Z,970.05
2016-12-20T09:41:23.499Z,970.03
2016-12-20T09:42:23.461Z,969.98
2016-12-20T09:43:23.422Z,970.03
2016-12-20T09:44:23.384Z,970.04
2016-12-20T09:45:23.344Z,969.95
2016-12-20T09:46:23.303Z,969.86
2016-12-20T09:47:23.269Z,969.86
2016-12-20T09:48:23.228Z,969.96
2016-12-20T09:49:23.189Z,969.92
2016-12-20T09:50:23.149Z,969.87
2016-12-20T09:51:23.113Z,969.9
2016-12-20T09:52:23.072Z,969.93
2016-12-20T09:53:23.033Z,969.88
2016-12-20T09:54:22.995Z,969.68
2016-12-20T09:55:22.955Z,969.71
2016-12-20T09:56:22.920Z,969.75
2016-12-20T09:57:22.879Z,969.83
2016-12-20T09:58:22.839Z,969.81
2016-12-20T09:59:22.802Z,969.81
2016-12-20T10:00:22.763Z,969.8
2016-12-20T10:01:22.723Z,969.82
2016-12-20T10:02:22.686Z,969.86
2016-12-20T10:03:22.647Z,969.94
2016-12-20T10:04:22.609Z,969.96
2016-12-20T10:05:22.574Z,969.91
2016-12-20T10:06:22.533Z,969.92
2016-12-20T10:07:22.498Z,969.81
2016-12-20T10:08:22.458Z,969.68
2016-12-20T10:09:22.423Z,969.69
2016-12-20T10:10:22.386Z,969.85
2016-12-20T10:11:22.348Z,969.93
2016-12-20T10:12:22.309Z,969.85
2016-12-20T10:13:22.271Z,969.83
2016-12-20T10:14:22.234Z,969.74
2016-12-20T10:15:22.197Z,969.75
2016-12-20T10:16:22.160Z,969.74
2016-12-20T10:17:22.123Z,969.74
2016-12-20T10:18:22.086Z,969.71
2016-12-20T10:19:22.050Z,969.66
2016-12-20T10:20:22.012Z,969.63
2016-12-20T10:21:21.973Z,969.64
2016-12-20T10:22:21.938Z,969.65
2016-12-20T10:23:21.902Z,969.73
2016-12-20T10:24:21.860Z,969.71
2016-12-20T10:25:21.827Z,969.64
2016-12-20T10:26:21.786Z,969.56
2016-12-20T10:27:21.748Z,969.46
2016-12-20T10:28:21.710Z,969.39
2016-12-20T10:29:21.673Z,969.51
2016-12-20T10:30:21.635Z,969.53
2016-12-20T10:31:21.597Z,969.54
2016-12-20T10:32:21.561Z,969.54
2016-12-20T10:33:21.520Z,969.58
2016-12-20T10:34:21.482Z,969.62
2016-12-20T10:35:21.444Z,969.61
2016-12-20T10:36:21.405Z,969.61
2016-12-20T10:37:21.367Z,969.61
2016-12-20T10:38:21.328Z,969.58
2016-12-20T10:39:21.290Z,969.51
2016-12-20T10:40:21.258Z,969.58
2016-12-20T10:41:21.214Z,969.53
2016-12-20T10:42:21.176Z,969.51
2016-12-20T10:43:21.139Z,969.5
2016-12-20T10:44:21.099Z,969.46
2016-12-20T10:45:21.060Z,969.46
2016-12-20T10:46:21.021Z,969.45
2016-12-20T10:47:20.983Z,969.45
2016-12-20T10:48:20.945Z,969.48
2016-12-20T10:49:20.907Z,969.5
2016-12-20T10:50:20.866Z,969.49
2016-12-20T10:51:20.827Z,969.54
2016-12-20T10:52:20.791Z,969.58
2016-12-20T10:53:20.752Z,969.57
2016-12-20T10:54:20.713Z,969.55
2016-12-20T10:55:20.674Z,969.48
2016-12-20T10:56:20.636Z,969.47
2016-12-20T10:57:20.597Z,969.38
2016-12-20T10:58:20.557Z,969.37
2016-12-20T10:59:20.520Z,969.38
2016-12-20T11:00:20.485Z,969.41
2016-12-20T11:01:20.442Z,969.46
2016-12-20T11:02:20.404Z,969.43
2016-12-20T11:03:20.367Z,969.43
2016-12-20T11:04:20.328Z,969.4
2016-12-20T11:05:20.290Z,969.39
2016-12-20T11:06:20.252Z,969.41
2016-12-20T11:07:20.212Z,969.37
2016-12-20T11:08:20.172Z,969.42
2016-12-20T11:09:20.135Z,969.41
2016-12-20T11:10:20.094Z,969.48
2016-12-20T11:11:20.059Z,969.46
2016-12-20T11:12:20.018Z,969.5
2016-12-20T11:13:19.980Z,969.55
2016-12-20T11:14:19.939Z,969.61
2016-12-20T11:15:19.903Z,969.51
2016-12-20T11:16:19.863Z,969.39
2016-12-20T11:17:19.823Z,969.31
2016-12-20T11:18:19.783Z,969.38
2016-12-20T11:19:19.746Z,969.44
2016-12-20T11:20:19.707Z,969.39
2016-12-20T11:21:19.670Z,969.42
2016-12-20T11:22:19.629Z,969.5
2016-12-20T11:23:19.589Z,969.52
2016-12-20T11:24:19.551Z,969.44
2016-12-20T11:25:19.511Z,969.41
2016-12-20T11:26:19.472Z,969.4
2016-12-20T11:27:19.432Z,969.43
2016-12-20T11:28:19.393Z,969.45
2016-12-20T11:29:19.355Z,969.47
2016-12-20T11:30:19.317Z,969.46
2016-12-20T11:31:19.277Z,969.41
2016-12-20T11:32:19.239Z,969.37
2016-12-20T11:33:19.199Z,969.35
2016-12-20T11:34:19.159Z,969.33
2016-12-20T11:35:19.119Z,969.36
2016-12-20T11:36:19.081Z,969.34
2016-12-20T11:37:19.041Z,969.38
2016-12-20T11:38:19.002Z,969.32
2016-12-20T11:39:18.963Z,969.31
2016-12-20T11:40:18.922Z,969.31
2016-12-20T11:41:18.885Z,969.29
2016-12-20T11:42:18.845Z,969.28
2016-12-20T11:43:18.807Z,969.34
2016-12-20T11:44:18.766Z,969.34
2016-12-20T11:45:18.745Z,969.36
2016-12-20T11:46:18.689Z,969.32
2016-12-20T11:47:18.665Z,969.32
2016-12-20T11:48:18.608Z,969.27
2016-12-20T11:49:18.569Z,969.31
2016-12-20T11:50:18.537Z,969.32
2016-12-20T11:51:18.491Z,969.25
2016-12-20T11:52:18.448Z,969.21
2016-12-20T11:53:18.410Z,969.18
2016-12-20T11:54:18.371Z,969.25
2016-12-20T11:55:18.331Z,969.27
2016-12-20T11:56:18.291Z,969.23
2016-12-20T11:57:18.253Z,969.25
2016-12-20T11:58:18.243Z,969.3
2016-12-20T11:59:18.174Z,969.3
2016-12-20T12:00:18.134Z,969.23
2016-12-20T12:01:18.094Z,969.17
2016-12-20T12:02:18.053Z,969.16
2016-12-20T12:03:18.014Z,969.25
2016-12-20T12:04:17.975Z,969.28
2016-12-20T12:05:17.937Z,969.24
2016-12-20T12:06:17.895Z,969.19
2016-12-20T12:07:17.855Z,969.16
2016-12-20T12:08:17.815Z,969.16
2016-12-20T12:09:17.775Z,969.23
2016-12-20T12:10:17.737Z,969.21
2016-12-20T12:11:17.705Z,969.17
2016-12-20T12:12:17.656Z,969.22
2016-12-20T12:13:17.617Z,969.19
2016-12-20T12:14:17.576Z,969.2
2016-12-20T12:15:17.537Z,969.21
2016-12-20T12:16:17.497Z,969.2
2016-12-20T12:17:17.458Z,969.16
2016-12-20T12:18:17.417Z,969.11
2016-12-20T12:19:17.378Z,969.06
2016-12-20T12:20:17.338Z,969.11
2016-12-20T12:21:17.302Z,969.17
2016-12-20T12:22:17.261Z,969.16
2016-12-20T12:23:17.218Z,969.11
2016-12-20T12:24:17.179Z,969.04
2016-12-20T12:25:17.137Z,969.03
2016-12-20T12:26:17.097Z,968.97
2016-12-20T12:27:17.058Z,969.01
2016-12-20T12:28:17.020Z,969.03
2016-12-20T12:29:16.979Z,969.06
2016-12-20T12:30:16.938Z,969.06
2016-12-20T12:31:16.900Z,969.08
2016-12-20T12:32:16.858Z,969.13
2016-12-20T12:33:16.821Z,969.19
2016-12-20T12:34:16.779Z,969.12
2016-12-20T12:35:16.739Z,969.12
2016-12-20T12:36:16.699Z,969.09
2016-12-20T12:37:16.661Z,969.07
2016-12-20T12:38:16.620Z,969.08
2016-12-20T12:39:16.580Z,969.08
2016-12-20T12:40:16.538Z,969.06
2016-12-20T12:41:16.500Z,969.05
2016-12-20T12:42:16.460Z,969.08
2016-12-20T12:43:16.420Z,969.04
2016-12-20T12:44:16.379Z,969
2016-12-20T12:45:16.339Z,969.03
2016-12-20T12:46:16.302Z,969.04
2016-12-20T12:47:16.261Z,969.06
2016-12-20T12:48:16.226Z,969.06
2016-12-20T12:49:16.180Z,969.04
2016-12-20T12:50:16.140Z,969.07
2016-12-20T12:51:16.101Z,969.01
2016-12-20T12:52:16.063Z,968.96
2016-12-20T12:53:16.021Z,968.9
2016-12-20T12:54:15.981Z,968.97
2016-12-20T12:55:15.940Z,968.98
2016-12-20T12:56:15.902Z,969.06
2016-12-20T12:57:15.861Z,969.09
2016-12-20T12:58:15.822Z,969.07
2016-12-20T12:59:15.781Z,969.09
2016-12-20T13:00:15.741Z,969.04
2016-12-20T13:01:15.700Z,969
2016-12-20T13:02:15.660Z,969
2016-12-20T13:03:15.620Z,968.98
2016-12-20T13:04:15.579Z,968.97
2016-12-20T13:05:15.540Z,968.93
2016-12-20T13:06:15.500Z,968.87
2016-12-20T13:07:15.462Z,968.91
2016-12-20T13:08:15.419Z,968.97
2016-12-20T13:09:15.379Z,969.06
2016-12-20T13:10:15.340Z,969.11
2016-12-20T13:11:15.299Z,969.06
2016-12-20T13:12:15.259Z,969.05
2016-12-20T13:13:15.218Z,969.03
2016-12-20T13:14:15.178Z,969.01
2016-12-20T13:15:15.138Z,969.04
2016-12-20T13:16:15.097Z,969.04
2016-12-20T13:17:15.057Z,969.11
2016-12-20T13:18:15.018Z,969.08
2016-12-20T13:19:14.977Z,969.05
2016-12-20T13:20:14.935Z,969.13
2016-12-20T13:21:14.896Z,969.11
2016-12-20T13:22:14.863Z,969.1
2016-12-20T13:23:14.813Z,969.12
2016-12-20T13:24:14.773Z,969.09
2016-12-20T13:25:14.734Z,969.04
2016-12-20T13:26:14.695Z,969.1
2016-12-20T13:27:14.652Z,969.1
2016-12-20T13:28:14.611Z,969.11
2016-12-20T13:29:14.572Z,969.13
2016-12-20T13:30:14.532Z,969.14
2016-12-20T13:31:14.490Z,969.11
2016-12-20T13:32:14.449Z,969.1
2016-12-20T13:33:14.410Z,969.09
2016-12-20T13:34:14.369Z,969.06
2016-12-20T13:35:14.329Z,969.11
2016-12-20T13:36:14.297Z,969.17
2016-12-20T13:37:14.249Z,969.12
2016-12-20T13:38:14.206Z,969.23
2016-12-20T13:39:14.166Z,969.14
2016-12-20T13:40:14.127Z,969.15
2016-12-20T13:41:14.085Z,969.16
2016-12-20T13:42:14.046Z,969.16
2016-12-20T13:43:14.004Z,969.21
2016-12-20T13:44:13.963Z,969.28
2016-12-20T13:45:13.923Z,969.25
2016-12-20T13:46:13.881Z,969.33
2016-12-20T13:47:13.841Z,969.27
2016-12-20T13:48:13.805Z,969.28
2016-12-20T13:49:13.760Z,969.29
2016-12-20T13:50:13.720Z,969.27
2016-12-20T13:51:13.678Z,969.21
2016-12-20T13:52:13.638Z,969.2
2016-12-20T13:53:13.597Z,969.28
2016-12-20T13:54:13.556Z,969.29
2016-12-20T13:55:13.516Z,969.36
2016-12-20T13:56:13.474Z,969.37
2016-12-20T13:57:13.434Z,969.31
2016-12-20T13:58:13.392Z,969.31
2016-12-20T13:59:13.354Z,969.25
2016-12-20T14:00:13.314Z,969.3
2016-12-20T14:01:13.272Z,969.41
2016-12-20T14:02:13.230Z,969.41
2016-12-20T14:03:13.190Z,969.44
2016-12-20T14:04:13.147Z,969.46
2016-12-20T14:05:13.108Z,969.43
2016-12-20T14:06:13.067Z,969.39
2016-12-20T14:07:13.024Z,969.37
2016-12-20T14:08:12.984Z,969.35
2016-12-20T14:09:12.943Z,969.39
2016-12-20T14:10:12.902Z,969.44
2016-12-20T14:11:12.862Z,969.41
2016-12-20T14:12:12.819Z,969.44
2016-12-20T14:13:12.779Z,969.47
2016-12-20T14:14:12.738Z,969.49
2016-12-20T14:15:12.697Z,969.48
2016-12-20T14:16:12.656Z,969.46
2016-12-20T14:17:12.614Z,969.45
2016-12-20T14:18:12.573Z,969.45
2016-12-20T14:19:12.537Z,969.47
2016-12-20T14:20:12.491Z,969.51
2016-12-20T14:21:12.450Z,969.53
2016-12-20T14:22:12.408Z,969.5
2016-12-20T14:23:12.367Z,969.54
2016-12-20T14:24:12.325Z,969.58
2016-12-20T14:25:12.284Z,969.58
2016-12-20T14:26:12.243Z,969.63
2016-12-20T14:27:12.201Z,969.61
2016-12-20T14:28:12.163Z,969.61
2016-12-20T14:29:12.118Z,969.61
2016-12-20T14:30:12.078Z,969.5
2016-12-20T14:31:12.038Z,969.5
2016-12-20T14:32:11.996Z,969.5
2016-12-20T14:33:11.954Z,969.53
2016-12-20T14:34:11.910Z,969.55
2016-12-20T14:35:11.870Z,969.49
2016-12-20T14:36:11.827Z,969.46
2016-12-20T14:37:11.786Z,969.49
2016-12-20T14:38:11.745Z,969.48
2016-12-20T14:39:11.703Z,969.46
2016-12-20T14:40:11.662Z,969.46
2016-12-20T14:41:11.619Z,969.48
2016-12-20T14:42:11.578Z,969.44
2016-12-20T14:43:11.537Z,969.48
2016-12-20T14:44:11.494Z,969.51
2016-12-20T14:45:11.453Z,969.44
2016-12-20T14:46:11.413Z,969.45
2016-12-20T14:47:11.371Z,969.45
2016-12-20T14:48:11.328Z,969.45
2016-12-20T14:49:11.287Z,969.47
2016-12-20T14:50:11.245Z,969.46
2016-12-20T14:51:11.204Z,969.44
2016-12-20T14:52:11.163Z,969.44
2016-12-20T14:53:11.122Z,969.48
2016-12-20T14:54:11.078Z,969.45
2016-12-20T14:55:11.035Z,969.43
2016-12-20T14:56:10.996Z,969.49
2016-12-20T14:57:10.955Z,969.48
2016-12-20T14:58:10.912Z,969.43
2016-12-20T14:59:10.869Z,969.46
2016-12-20T15:00:10.827Z,969.4
2016-12-20T15:01:10.786Z,969.45
2016-12-20T15:02:10.760Z,969.51
2016-12-20T15:03:10.702Z,969.53
2016-12-20T15:04:10.661Z,969.55
2016-12-20T15:05:10.618Z,969.52
2016-12-20T15:06:10.577Z,969.42
2016-12-20T15:07:10.535Z,969.5
2016-12-20T15:08:10.495Z,969.54
2016-12-20T15:09:10.450Z,969.52
2016-12-20T15:10:10.408Z,969.62
2016-12-20T15:11:10.367Z,969.61
2016-12-20T15:12:10.325Z,969.56
2016-12-20T15:13:10.282Z,969.53
2016-12-20T15:14:10.241Z,969.59
2016-12-20T15:15:10.199Z,969.53
2016-12-20T15:16:10.157Z,969.47
2016-12-20T15:17:10.117Z,969.49
2016-12-20T15:18:10.073Z,969.54
2016-12-20T15:19:10.031Z,969.6
2016-12-20T15:20:09.988Z,969.67
2016-12-20T15:21:09.949Z,969.69
2016-12-20T15:22:09.904Z,969.64
2016-12-20T15:23:09.866Z,969.7
2016-12-20T15:24:09.822Z,969.69
2016-12-20T15:25:09.779Z,969.62
2016-12-20T15:26:09.739Z,969.62
2016-12-20T15:27:09.692Z,969.67
2016-12-20T15:28:09.650Z,969.68
2016-12-20T15:29:09.608Z,969.64
2016-12-20T15:30:09.566Z,969.69
2016-12-20T15:31:09.530Z,969.7
2016-12-20T15:32:09.481Z,969.77
2016-12-20T15:33:09.439Z,969.74
2016-12-20T15:34:09.401Z,969.64
2016-12-20T15:35:09.353Z,969.66
2016-12-20T15:36:09.309Z,969.61
2016-12-20T15:37:09.268Z,969.62
2016-12-20T15:38:09.227Z,969.73
2016-12-20T15:39:09.183Z,969.74
2016-12-20T15:40:09.141Z,969.77
2016-12-20T15:41:09.100Z,969.75
2016-12-20T15:42:09.056Z,969.76
2016-12-20T15:43:09.014Z,969.75
2016-12-20T15:44:08.972Z,969.71
2016-12-20T15:45:08.931Z,969.71
2016-12-20T15:46:08.886Z,969.68
2016-12-20T15:47:08.844Z,969.77
2016-12-20T15:48:08.802Z,969.82
2016-12-20T15:49:08.759Z,969.87
2016-12-20T15:50:08.716Z,969.79
2016-12-20T15:51:08.674Z,969.85
2016-12-20T15:52:08.632Z,969.79
2016-12-20T15:53:08.588Z,969.81
2016-12-20T15:54:08.547Z,969.86
2016-12-20T15:55:08.503Z,969.9
2016-12-20T15:56:08.459Z,969.99
2016-12-20T15:57:08.418Z,970
2016-12-20T15:58:08.375Z,969.97
2016-12-20T15:59:08.333Z,970.04
2016-12-20T16:00:08.291Z,970.1
2016-12-20T16:01:08.249Z,970.09
2016-12-20T16:02:08.206Z,970.03
2016-12-20T16:03:08.164Z,970.05
2016-12-20T16:04:08.119Z,970.07
2016-12-20T16:05:08.077Z,970.1
2016-12-20T16:06:08.035Z,970.09
2016-12-20T16:07:07.994Z,970.16
2016-12-20T16:08:07.948Z,970.17
2016-12-20T16:09:07.907Z,970.15
2016-12-20T16:10:07.864Z,970.15
2016-12-20T16:11:07.820Z,970.06
2016-12-20T16:12:07.780Z,970.06
2016-12-20T16:13:07.735Z,970.06
2016-12-20T16:14:07.693Z,970.18
2016-12-20T16:15:07.650Z,970.12
2016-12-20T16:16:07.608Z,970.24
2016-12-20T16:17:07.566Z,970.19
2016-12-20T16:18:07.524Z,970.17
2016-12-20T16:19:07.479Z,970.17
2016-12-20T16:20:07.437Z,970.22
2016-12-20T16:21:07.394Z,970.24
2016-12-20T16:22:07.352Z,970.22
2016-12-20T16:23:07.308Z,970.23
2016-12-20T16:24:07.266Z,970.22
2016-12-20T16:25:07.224Z,970.21
2016-12-20T16:26:07.181Z,970.19
2016-12-20T16:27:07.138Z,970.18
2016-12-20T16:28:07.096Z,970.22
2016-12-20T16:29:07.053Z,970.22
2016-12-20T16:30:07.010Z,970.23
2016-12-20T16:31:06.967Z,970.26
2016-12-20T16:32:06.925Z,970.24
2016-12-20T16:33:06.881Z,970.22
2016-12-20T16:34:06.838Z,970.24
2016-12-20T16:35:06.797Z,970.3
2016-12-20T16:36:06.756Z,970.21
2016-12-20T16:37:06.710Z,970.23
2016-12-20T16:38:06.671Z,970.22
2016-12-20T16:39:06.625Z,970.25
2016-12-20T16:40:06.585Z,970.24
2016-12-20T16:41:06.542Z,970.21
2016-12-20T16:42:06.499Z,970.27
2016-12-20T16:43:06.455Z,970.31
2016-12-20T16:44:06.411Z,970.28
2016-12-20T16:45:06.376Z,970.31
2016-12-20T16:46:06.327Z,970.32
2016-12-20T16:47:06.286Z,970.35
2016-12-20T16:48:06.241Z,970.33
2016-12-20T16:49:06.198Z,970.32
2016-12-20T16:50:06.156Z,970.3
2016-12-20T16:51:06.113Z,970.32
2016-12-20T16:52:06.070Z,970.4
2016-12-20T16:53:06.027Z,970.47
2016-12-20T16:54:05.988Z,970.44
2016-12-20T16:55:05.942Z,970.43
2016-12-20T16:56:05.899Z,970.47
2016-12-20T16:57:05.857Z,970.41
2016-12-20T16:58:05.814Z,970.47
2016-12-20T16:59:05.772Z,970.49
2016-12-20T17:00:05.728Z,970.51
2016-12-20T17:01:05.686Z,970.55
2016-12-20T17:02:05.643Z,970.5
2016-12-20T17:03:05.601Z,970.53
2016-12-20T17:04:05.565Z,970.45
2016-12-20T17:05:05.517Z,970.46
2016-12-20T17:06:05.471Z,970.51
2016-12-20T17:07:05.430Z,970.53
2016-12-20T17:08:05.386Z,970.58
2016-12-20T17:09:05.345Z,970.57
2016-12-20T17:10:05.303Z,970.61
2016-12-20T17:11:05.258Z,970.6
2016-12-20T17:12:05.216Z,970.62
2016-12-20T17:13:05.174Z,970.66
2016-12-20T17:14:05.130Z,970.68
2016-12-20T17:15:05.087Z,970.69
2016-12-20T17:16:05.047Z,970.7
2016-12-20T17:17:05.002Z,970.7
2016-12-20T17:18:04.959Z,970.74
2016-12-20T17:19:04.917Z,970.74
2016-12-20T17:20:04.876Z,970.73
2016-12-20T17:21:04.831Z,970.74
2016-12-20T17:22:04.788Z,970.81
2016-12-20T17:23:04.747Z,970.79
2016-12-20T17:24:04.704Z,970.77
2016-12-20T17:25:04.661Z,970.82
2016-12-20T17:26:04.617Z,970.85
2016-12-20T17:27:04.575Z,970.88
2016-12-20T17:28:04.533Z,970.91
2016-12-20T17:29:04.490Z,970.91
2016-12-20T17:30:04.449Z,970.89
2016-12-20T17:31:04.404Z,970.98
2016-12-20T17:32:04.362Z,971.01
2016-12-20T17:33:04.320Z,971.02
2016-12-20T17:34:04.278Z,971.07
2016-12-20T17:35:04.236Z,971.08
2016-12-20T17:36:04.192Z,971.08
2016-12-20T17:37:04.151Z,971.07
2016-12-20T17:38:04.108Z,971.09
2016-12-20T17:39:04.063Z,971.09
2016-12-20T17:40:04.022Z,971.17
2016-12-20T17:41:03.979Z,971.17
2016-12-20T17:42:03.936Z,971.17
2016-12-20T17:43:03.895Z,971.19
2016-12-20T17:44:03.854Z,971.28
2016-12-20T17:45:03.809Z,971.26
2016-12-20T17:46:03.768Z,971.22
2016-12-20T17:47:03.726Z,971.26
2016-12-20T17:48:03.681Z,971.23
2016-12-20T17:49:03.638Z,971.32
2016-12-20T17:50:03.597Z,971.25
2016-12-20T17:51:03.554Z,971.27
2016-12-20T17:52:03.513Z,971.3
2016-12-20T17:53:03.467Z,971.31
2016-12-20T17:54:03.425Z,971.31
2016-12-20T17:55:03.383Z,971.41
2016-12-20T17:56:03.341Z,971.44
2016-12-20T17:57:03.298Z,971.46
2016-12-20T17:58:03.255Z,971.41
2016-12-20T17:59:03.213Z,971.46
2016-12-20T18:00:03.172Z,971.44
2016-12-20T18:01:03.128Z,971.46
2016-12-20T18:02:03.084Z,971.39
2016-12-20T18:03:03.041Z,971.44
2016-12-20T18:04:03.002Z,971.51
2016-12-20T18:05:02.957Z,971.49
2016-12-20T18:06:02.915Z,971.41
2016-12-20T18:07:02.873Z,971.48
2016-12-20T18:08:02.828Z,971.45
2016-12-20T18:09:02.786Z,971.53
2016-12-20T18:10:02.743Z,971.58
2016-12-20T18:11:02.702Z,971.59
2016-12-20T18:12:02.659Z,971.56
2016-12-20T18:13:02.616Z,971.57
2016-12-20T18:14:02.574Z,971.61
2016-12-20T18:15:02.531Z,971.71
2016-12-20T18:16:02.488Z,971.71
2016-12-20T18:17:02.445Z,971.73
2016-12-20T18:18:02.403Z,971.78
2016-12-20T18:19:02.359Z,971.8
2016-12-20T18:20:02.319Z,971.77
2016-12-20T18:21:02.275Z,971.8
2016-12-20T18:22:02.232Z,971.82
2016-12-20T18:23:02.190Z,971.77
2016-12-20T18:24:02.147Z,971.85
2016-12-20T18:25:02.107Z,971.88
2016-12-20T18:26:02.064Z,971.87
2016-12-20T18:27:02.026Z,971.87
2016-12-20T18:28:01.979Z,971.9
2016-12-20T18:29:01.936Z,971.93
2016-12-20T18:30:01.892Z,971.94
2016-12-20T18:31:01.851Z,971.95
2016-12-20T18:32:01.808Z,972
2016-12-20T18:33:01.765Z,972.03
2016-12-20T18:34:01.722Z,972.01
2016-12-20T18:35:01.680Z,972.02
2016-12-20T18:36:01.639Z,972.03
2016-12-20T18:37:01.597Z,972.02
2016-12-20T18:38:01.552Z,972.02
2016-12-20T18:39:01.509Z,972.01
2016-12-20T18:40:01.466Z,971.96
2016-12-20T18:41:01.424Z,971.98
2016-12-20T18:42:01.382Z,972
2016-12-20T18:43:01.338Z,972
2016-12-20T18:44:01.299Z,972.06
2016-12-20T18:45:01.260Z,972.02
2016-12-20T18:46:01.210Z,972.02
2016-12-20T18:47:01.169Z,972.1
2016-12-20T18:48:01.127Z,972.09
2016-12-20T18:49:01.086Z,972.14
2016-12-20T18:50:01.046Z,972.11
2016-12-20T18:51:00.999Z,972.13
2016-12-20T18:52:00.957Z,972.13
2016-12-20T18:53:00.916Z,972.11
2016-12-20T18:54:00.872Z,972.16
2016-12-20T18:55:00.829Z,972.15
2016-12-20T18:56:00.788Z,972.18
2016-12-20T18:57:00.744Z,972.19
2016-12-20T18:58:00.701Z,972.2
2016-12-20T18:59:00.661Z,972.17
2016-12-20T19:00:00.616Z,972.15
2016-12-20T19:01:00.575Z,972.15
2016-12-20T19:02:00.532Z,972.19
2016-12-20T19:03:00.488Z,972.18
2016-12-20T19:04:00.447Z,972.16
2016-12-20T19:05:00.404Z,972.19
2016-12-20T19:06:00.369Z,972.15
2016-12-20T19:07:00.319Z,972.2
2016-12-20T19:08:00.284Z,972.18
2016-12-20T19:09:00.234Z,972.2
2016-12-20T19:10:00.196Z,972.21
2016-12-20T19:11:00.150Z,972.21
2016-12-20T19:12:00.107Z,972.21
2016-12-20T19:13:00.064Z,972.28
2016-12-20T19:14:00.022Z,972.3
2016-12-20T19:14:59.979Z,972.25
2016-12-20T19:15:59.938Z,972.28
2016-12-20T19:16:59.896Z,972.3
2016-12-20T19:17:59.852Z,972.35
2016-12-20T19:18:59.809Z,972.32
2016-12-20T19:19:59.766Z,972.32
2016-12-20T19:20:59.723Z,972.28
2016-12-20T19:21:59.680Z,972.34
2016-12-20T19:22:59.638Z,972.34
2016-12-20T19:23:59.596Z,972.35
2016-12-20T19:24:59.553Z,972.34
2016-12-20T19:25:59.511Z,972.34
2016-12-20T19:26:59.468Z,972.27
2016-12-20T19:27:59.423Z,972.31
2016-12-20T19:28:59.379Z,972.31
2016-12-20T19:29:59.337Z,972.39
2016-12-20T19:30:59.296Z,972.35
2016-12-20T19:31:59.251Z,972.37
2016-12-20T19:32:59.212Z,972.35
2016-12-20T19:33:59.174Z,972.32
2016-12-20T19:34:59.126Z,972.41
2016-12-20T19:35:59.082Z,972.41
2016-12-20T19:36:59.038Z,972.38
2016-12-20T19:37:58.996Z,972.38
2016-12-20T19:38:58.952Z,972.4
2016-12-20T19:39:58.910Z,972.41
2016-12-20T19:40:58.866Z,972.39
2016-12-20T19:41:58.825Z,972.4
2016-12-20T19:42:58.782Z,972.4
2016-12-20T19:43:58.738Z,972.39
2016-12-20T19:44:58.697Z,972.35
2016-12-20T19:45:58.656Z,972.35
2016-12-20T19:46:58.611Z,972.36
2016-12-20T19:47:58.567Z,972.34
2016-12-20T19:48:58.526Z,972.36